sensor_id;sensor_type;location;lat;lon;timestamp;pressure;altitude;pressure_sealevel;temperature;humidity
70968;BME280;58629;48.808;8.820;2022-07-06T00:01:56;97709.22;;;15.36;66.67
70968;BME280;58629;48.808;8.820;2022-07-06T00:04:21;97696.69;;;15.33;65.64
70968;BME280;58629;48.808;8.820;2022-07-06T00:06:47;97697.34;;;15.37;67.45
70968;BME280;58629;48.808;8.820;2022-07-06T00:09:13;97702.78;;;15.34;69.44
70968;BME280;58629;48.808;8.820;2022-07-06T00:11:38;97705.25;;;15.28;70.30
70968;BME280;58629;48.808;8.820;2022-07-06T00:14:04;97698.50;;;15.24;71.37
70968;BME280;58629;48.808;8.820;2022-07-06T00:16:29;97703.59;;;15.18;70.93
70968;BME280;58629;48.808;8.820;2022-07-06T00:18:55;97701.13;;;15.11;71.54
70968;BME280;58629;48.808;8.820;2022-07-06T00:21:21;97697.88;;;15.04;71.87
70968;BME280;58629;48.808;8.820;2022-07-06T00:23:46;97696.91;;;14.98;70.96
70968;BME280;58629;48.808;8.820;2022-07-06T00:26:11;97699.34;;;14.92;72.34
70968;BME280;58629;48.808;8.820;2022-07-06T00:28:37;97696.25;;;14.94;72.34
70968;BME280;58629;48.808;8.820;2022-07-06T00:31:02;97700.69;;;14.84;72.23
70968;BME280;58629;48.808;8.820;2022-07-06T00:33:28;97704.38;;;14.74;72.89
70968;BME280;58629;48.808;8.820;2022-07-06T00:35:53;97711.72;;;14.70;73.59
70968;BME280;58629;48.808;8.820;2022-07-06T00:38:18;97710.66;;;14.67;73.96
70968;BME280;58629;48.808;8.820;2022-07-06T00:40:44;97716.78;;;14.64;73.83
70968;BME280;58629;48.808;8.820;2022-07-06T00:43:09;97712.81;;;14.56;67.10
70968;BME280;58629;48.808;8.820;2022-07-06T00:45:34;97716.06;;;14.48;66.68
70968;BME280;58629;48.808;8.820;2022-07-06T00:48:00;97708.09;;;14.48;66.60
70968;BME280;58629;48.808;8.820;2022-07-06T00:50:26;97706.66;;;14.43;66.90
70968;BME280;58629;48.808;8.820;2022-07-06T00:52:55;97704.41;;;14.42;66.97
70968;BME280;58629;48.808;8.820;2022-07-06T00:55:23;97703.75;;;14.38;66.65
70968;BME280;58629;48.808;8.820;2022-07-06T00:57:49;97704.16;;;14.36;67.09
70968;BME280;58629;48.808;8.820;2022-07-06T01:00:17;97701.09;;;14.38;66.30
70968;BME280;58629;48.808;8.820;2022-07-06T01:02:43;97698.66;;;14.43;65.76
70968;BME280;58629;48.808;8.820;2022-07-06T01:05:10;97699.00;;;14.45;65.62
70968;BME280;58629;48.808;8.820;2022-07-06T01:07:36;97699.41;;;14.44;65.87
70968;BME280;58629;48.808;8.820;2022-07-06T01:10:03;97700.09;;;14.48;64.93
70968;BME280;58629;48.808;8.820;2022-07-06T01:12:29;97703.81;;;14.50;65.81
70968;BME280;58629;48.808;8.820;2022-07-06T01:14:55;97703.72;;;14.54;66.72
70968;BME280;58629;48.808;8.820;2022-07-06T01:17:21;97701.31;;;14.59;67.91
70968;BME280;58629;48.808;8.820;2022-07-06T01:19:47;97695.56;;;14.61;67.61
70968;BME280;58629;48.808;8.820;2022-07-06T01:22:12;97693.72;;;14.58;64.99
70968;BME280;58629;48.808;8.820;2022-07-06T01:24:37;97688.00;;;14.59;64.98
70968;BME280;58629;48.808;8.820;2022-07-06T01:27:04;97692.72;;;14.68;64.02
70968;BME280;58629;48.808;8.820;2022-07-06T01:29:31;97689.31;;;14.67;64.23
70968;BME280;58629;48.808;8.820;2022-07-06T01:31:56;97683.72;;;14.62;64.79
70968;BME280;58629;48.808;8.820;2022-07-06T01:34:22;97679.34;;;14.55;65.55
70968;BME280;58629;48.808;8.820;2022-07-06T01:36:47;97679.81;;;14.50;65.50
70968;BME280;58629;48.808;8.820;2022-07-06T01:39:12;97679.91;;;14.47;65.65
70968;BME280;58629;48.808;8.820;2022-07-06T01:41:38;97668.09;;;14.48;65.65
70968;BME280;58629;48.808;8.820;2022-07-06T01:44:04;97676.50;;;14.46;65.70
70968;BME280;58629;48.808;8.820;2022-07-06T01:46:30;97678.00;;;14.47;65.52
70968;BME280;58629;48.808;8.820;2022-07-06T01:48:56;97683.00;;;14.45;66.14
70968;BME280;58629;48.808;8.820;2022-07-06T01:51:22;97672.50;;;14.38;66.41
70968;BME280;58629;48.808;8.820;2022-07-06T01:53:48;97680.84;;;14.40;66.49
70968;BME280;58629;48.808;8.820;2022-07-06T01:56:13;97681.78;;;14.34;66.71
70968;BME280;58629;48.808;8.820;2022-07-06T01:58:39;97678.91;;;14.25;67.25
70968;BME280;58629;48.808;8.820;2022-07-06T02:01:12;97674.09;;;14.20;67.46
70968;BME280;58629;48.808;8.820;2022-07-06T02:03:38;97688.22;;;14.17;67.69
70968;BME280;58629;48.808;8.820;2022-07-06T02:06:03;97692.19;;;14.09;67.95
70968;BME280;58629;48.808;8.820;2022-07-06T02:08:29;97691.53;;;14.05;68.30
70968;BME280;58629;48.808;8.820;2022-07-06T02:10:55;97693.03;;;14.06;68.49
70968;BME280;58629;48.808;8.820;2022-07-06T02:13:20;97692.72;;;14.04;68.43
70968;BME280;58629;48.808;8.820;2022-07-06T02:15:45;97696.13;;;14.04;68.54
70968;BME280;58629;48.808;8.820;2022-07-06T02:18:10;97694.53;;;14.07;68.16
70968;BME280;58629;48.808;8.820;2022-07-06T02:20:36;97692.72;;;14.04;68.77
70968;BME280;58629;48.808;8.820;2022-07-06T02:23:01;97688.81;;;14.08;68.49
70968;BME280;58629;48.808;8.820;2022-07-06T02:25:27;97686.16;;;14.08;68.60
70968;BME280;58629;48.808;8.820;2022-07-06T02:27:52;97690.28;;;14.09;68.96
70968;BME280;58629;48.808;8.820;2022-07-06T02:30:17;97694.19;;;14.05;69.10
70968;BME280;58629;48.808;8.820;2022-07-06T02:32:43;97687.28;;;14.07;68.67
70968;BME280;58629;48.808;8.820;2022-07-06T02:35:08;97694.19;;;14.05;69.09
70968;BME280;58629;48.808;8.820;2022-07-06T02:37:33;97697.44;;;13.96;69.49
70968;BME280;58629;48.808;8.820;2022-07-06T02:39:59;97703.59;;;13.93;69.89
70968;BME280;58629;48.808;8.820;2022-07-06T02:42:24;97711.06;;;13.82;70.26
70968;BME280;58629;48.808;8.820;2022-07-06T02:44:54;97705.75;;;13.82;70.27
70968;BME280;58629;48.808;8.820;2022-07-06T02:47:20;97709.06;;;13.86;70.16
70968;BME280;58629;48.808;8.820;2022-07-06T02:49:45;97705.56;;;13.89;70.00
70968;BME280;58629;48.808;8.820;2022-07-06T02:52:10;97707.47;;;13.88;70.21
70968;BME280;58629;48.808;8.820;2022-07-06T02:54:35;97708.56;;;13.91;69.83
70968;BME280;58629;48.808;8.820;2022-07-06T02:57:01;97701.44;;;13.88;70.44
70968;BME280;58629;48.808;8.820;2022-07-06T02:59:26;97700.88;;;13.77;71.13
70968;BME280;58629;48.808;8.820;2022-07-06T03:01:51;97714.78;;;13.84;70.77
70968;BME280;58629;48.808;8.820;2022-07-06T03:04:16;97706.81;;;13.84;70.44
70968;BME280;58629;48.808;8.820;2022-07-06T03:06:42;97717.88;;;13.83;70.96
70968;BME280;58629;48.808;8.820;2022-07-06T03:09:07;97728.09;;;13.84;70.75
70968;BME280;58629;48.808;8.820;2022-07-06T03:11:33;97722.06;;;13.84;70.88
70968;BME280;58629;48.808;8.820;2022-07-06T03:14:04;97728.59;;;13.79;71.16
70968;BME280;58629;48.808;8.820;2022-07-06T03:16:30;97724.13;;;13.76;71.42
70968;BME280;58629;48.808;8.820;2022-07-06T03:18:55;97730.59;;;13.75;71.58
70968;BME280;58629;48.808;8.820;2022-07-06T03:21:20;97735.50;;;13.77;71.47
70968;BME280;58629;48.808;8.820;2022-07-06T03:23:46;97727.94;;;13.75;71.47
70968;BME280;58629;48.808;8.820;2022-07-06T03:26:11;97730.66;;;13.72;72.07
70968;BME280;58629;48.808;8.820;2022-07-06T03:28:36;97724.59;;;13.71;71.83
70968;BME280;58629;48.808;8.820;2022-07-06T03:31:01;97733.34;;;13.72;71.93
70968;BME280;58629;48.808;8.820;2022-07-06T03:33:27;97734.63;;;13.64;72.40
70968;BME280;58629;48.808;8.820;2022-07-06T03:35:52;97736.28;;;13.58;73.00
70968;BME280;58629;48.808;8.820;2022-07-06T03:38:17;97733.34;;;13.52;73.44
70968;BME280;58629;48.808;8.820;2022-07-06T03:40:42;97733.81;;;13.47;73.77
70968;BME280;58629;48.808;8.820;2022-07-06T03:43:08;97735.66;;;13.50;73.74
70968;BME280;58629;48.808;8.820;2022-07-06T03:45:33;97735.75;;;13.47;74.05
70968;BME280;58629;48.808;8.820;2022-07-06T03:47:58;97734.72;;;13.41;74.05
70968;BME280;58629;48.808;8.820;2022-07-06T03:50:23;97729.78;;;13.39;74.34
70968;BME280;58629;48.808;8.820;2022-07-06T03:52:49;97736.75;;;13.33;74.49
70968;BME280;58629;48.808;8.820;2022-07-06T03:55:14;97736.00;;;13.33;74.91
70968;BME280;58629;48.808;8.820;2022-07-06T03:57:39;97734.22;;;13.26;75.55
70968;BME280;58629;48.808;8.820;2022-07-06T04:00:07;97730.69;;;13.33;75.13
70968;BME280;58629;48.808;8.820;2022-07-06T04:02:32;97738.78;;;13.26;75.56
70968;BME280;58629;48.808;8.820;2022-07-06T04:04:58;97740.31;;;13.27;75.61
70968;BME280;58629;48.808;8.820;2022-07-06T04:07:23;97741.44;;;13.26;75.88
70968;BME280;58629;48.808;8.820;2022-07-06T04:09:48;97741.78;;;13.28;75.73
70968;BME280;58629;48.808;8.820;2022-07-06T04:12:14;97743.31;;;13.29;75.84
70968;BME280;58629;48.808;8.820;2022-07-06T04:14:39;97747.03;;;13.31;75.80
70968;BME280;58629;48.808;8.820;2022-07-06T04:17:04;97744.03;;;13.29;76.11
70968;BME280;58629;48.808;8.820;2022-07-06T04:19:49;97744.44;;;13.28;76.37
70968;BME280;58629;48.808;8.820;2022-07-06T04:22:15;97739.97;;;13.25;76.48
70968;BME280;58629;48.808;8.820;2022-07-06T04:24:41;97746.78;;;13.26;76.62
70968;BME280;58629;48.808;8.820;2022-07-06T04:27:06;97746.00;;;13.25;77.19
70968;BME280;58629;48.808;8.820;2022-07-06T04:29:31;97747.13;;;13.28;76.88
70968;BME280;58629;48.808;8.820;2022-07-06T04:31:56;97748.91;;;13.34;76.69
70968;BME280;58629;48.808;8.820;2022-07-06T04:34:22;97755.66;;;13.39;76.68
70968;BME280;58629;48.808;8.820;2022-07-06T04:36:47;97753.69;;;13.43;76.66
70968;BME280;58629;48.808;8.820;2022-07-06T04:39:12;97759.69;;;13.47;76.50
70968;BME280;58629;48.808;8.820;2022-07-06T04:41:37;97758.44;;;13.51;76.55
70968;BME280;58629;48.808;8.820;2022-07-06T04:44:03;97762.88;;;13.58;76.18
70968;BME280;58629;48.808;8.820;2022-07-06T04:46:28;97760.16;;;13.61;76.30
70968;BME280;58629;48.808;8.820;2022-07-06T04:48:53;97761.50;;;13.69;75.58
70968;BME280;58629;48.808;8.820;2022-07-06T04:51:19;97764.78;;;13.77;75.39
70968;BME280;58629;48.808;8.820;2022-07-06T04:53:44;97771.88;;;13.83;75.22
70968;BME280;58629;48.808;8.820;2022-07-06T04:56:10;97762.25;;;13.89;75.16
70968;BME280;58629;48.808;8.820;2022-07-06T04:58:36;97755.28;;;13.96;74.74
70968;BME280;58629;48.808;8.820;2022-07-06T05:01:01;97762.75;;;14.01;74.84
70968;BME280;58629;48.808;8.820;2022-07-06T05:03:26;97761.53;;;14.05;74.30
70968;BME280;58629;48.808;8.820;2022-07-06T05:05:51;97762.88;;;14.13;74.34
70968;BME280;58629;48.808;8.820;2022-07-06T05:08:17;97761.97;;;14.20;73.95
70968;BME280;58629;48.808;8.820;2022-07-06T05:10:42;97765.22;;;14.27;73.79
70968;BME280;58629;48.808;8.820;2022-07-06T05:13:07;97770.09;;;14.32;72.72
70968;BME280;58629;48.808;8.820;2022-07-06T05:15:33;97765.03;;;14.38;72.87
70968;BME280;58629;48.808;8.820;2022-07-06T05:17:58;97774.69;;;14.48;72.20
70968;BME280;58629;48.808;8.820;2022-07-06T05:20:23;97778.75;;;14.52;71.91
70968;BME280;58629;48.808;8.820;2022-07-06T05:22:49;97777.53;;;14.57;71.61
70968;BME280;58629;48.808;8.820;2022-07-06T05:25:14;97782.63;;;14.67;71.96
70968;BME280;58629;48.808;8.820;2022-07-06T05:27:39;97775.78;;;14.66;71.69
70968;BME280;58629;48.808;8.820;2022-07-06T05:30:05;97786.63;;;14.75;70.73
70968;BME280;58629;48.808;8.820;2022-07-06T05:32:30;97786.94;;;14.77;70.75
70968;BME280;58629;48.808;8.820;2022-07-06T05:34:56;97773.63;;;14.77;71.29
70968;BME280;58629;48.808;8.820;2022-07-06T05:37:21;97774.53;;;14.87;70.80
70968;BME280;58629;48.808;8.820;2022-07-06T05:39:46;97778.00;;;15.00;70.60
70968;BME280;58629;48.808;8.820;2022-07-06T05:42:14;97780.31;;;15.14;70.15
70968;BME280;58629;48.808;8.820;2022-07-06T05:44:40;97785.84;;;15.36;69.21
70968;BME280;58629;48.808;8.820;2022-07-06T05:47:05;97782.19;;;15.30;69.23
70968;BME280;58629;48.808;8.820;2022-07-06T05:49:49;97781.59;;;15.38;68.06
70968;BME280;58629;48.808;8.820;2022-07-06T05:52:33;97786.59;;;15.52;67.29
70968;BME280;58629;48.808;8.820;2022-07-06T05:54:58;97782.41;;;15.51;67.92
70968;BME280;58629;48.808;8.820;2022-07-06T05:57:24;97785.03;;;15.68;68.21
70968;BME280;58629;48.808;8.820;2022-07-06T05:59:49;97786.00;;;15.74;67.29
70968;BME280;58629;48.808;8.820;2022-07-06T06:02:14;97790.09;;;15.91;67.22
70968;BME280;58629;48.808;8.820;2022-07-06T06:04:40;97785.97;;;16.02;65.97
70968;BME280;58629;48.808;8.820;2022-07-06T06:07:05;97790.00;;;16.07;65.66
70968;BME280;58629;48.808;8.820;2022-07-06T06:09:30;97786.50;;;16.22;65.12
70968;BME280;58629;48.808;8.820;2022-07-06T06:11:55;97778.91;;;16.21;64.13
70968;BME280;58629;48.808;8.820;2022-07-06T06:14:21;97788.66;;;16.53;63.57
70968;BME280;58629;48.808;8.820;2022-07-06T06:16:46;97785.16;;;16.56;63.20
70968;BME280;58629;48.808;8.820;2022-07-06T06:19:11;97787.69;;;16.72;62.73
70968;BME280;58629;48.808;8.820;2022-07-06T06:21:36;97789.09;;;16.64;63.51
70968;BME280;58629;48.808;8.820;2022-07-06T06:24:02;97792.16;;;16.87;64.54
70968;BME280;58629;48.808;8.820;2022-07-06T06:26:27;97791.91;;;16.94;61.99
70968;BME280;58629;48.808;8.820;2022-07-06T06:28:52;97794.94;;;16.84;62.67
70968;BME280;58629;48.808;8.820;2022-07-06T06:31:18;97797.38;;;17.03;61.10
70968;BME280;58629;48.808;8.820;2022-07-06T06:33:43;97795.47;;;17.25;61.31
70968;BME280;58629;48.808;8.820;2022-07-06T06:36:08;97801.28;;;17.46;60.63
70968;BME280;58629;48.808;8.820;2022-07-06T06:38:34;97797.28;;;17.63;60.45
70968;BME280;58629;48.808;8.820;2022-07-06T06:41:00;97802.75;;;17.81;60.44
70968;BME280;58629;48.808;8.820;2022-07-06T06:43:26;97801.25;;;17.58;59.89
70968;BME280;58629;48.808;8.820;2022-07-06T06:45:51;97804.13;;;17.85;59.18
70968;BME280;58629;48.808;8.820;2022-07-06T06:48:17;97799.25;;;17.93;59.05
70968;BME280;58629;48.808;8.820;2022-07-06T06:50:45;97809.59;;;17.82;59.10
70968;BME280;58629;48.808;8.820;2022-07-06T06:53:10;97801.50;;;17.51;59.89
70968;BME280;58629;48.808;8.820;2022-07-06T06:55:36;97799.75;;;18.00;59.42
70968;BME280;58629;48.808;8.820;2022-07-06T06:58:01;97804.81;;;17.98;57.40
70968;BME280;58629;48.808;8.820;2022-07-06T07:00:26;97797.91;;;18.19;58.43
70968;BME280;58629;48.808;8.820;2022-07-06T07:02:52;97793.63;;;18.31;56.68
70968;BME280;58629;48.808;8.820;2022-07-06T07:05:17;97794.09;;;18.38;55.57
70968;BME280;58629;48.808;8.820;2022-07-06T07:07:42;97797.91;;;18.50;57.15
70968;BME280;58629;48.808;8.820;2022-07-06T07:10:08;97791.56;;;18.35;56.05
70968;BME280;58629;48.808;8.820;2022-07-06T07:12:34;97799.13;;;18.58;56.67
70968;BME280;58629;48.808;8.820;2022-07-06T07:15:00;97800.53;;;18.80;55.39
70968;BME280;58629;48.808;8.820;2022-07-06T07:17:25;97797.19;;;18.58;55.27
70968;BME280;58629;48.808;8.820;2022-07-06T07:19:51;97788.19;;;18.43;55.56
70968;BME280;58629;48.808;8.820;2022-07-06T07:22:16;97797.19;;;18.58;55.60
70968;BME280;58629;48.808;8.820;2022-07-06T07:24:41;97794.38;;;18.62;55.24
70968;BME280;58629;48.808;8.820;2022-07-06T07:27:06;97793.16;;;18.54;55.68
70968;BME280;58629;48.808;8.820;2022-07-06T07:29:32;97791.19;;;18.45;57.37
70968;BME280;58629;48.808;8.820;2022-07-06T07:31:57;97779.84;;;18.99;55.89
70968;BME280;58629;48.808;8.820;2022-07-06T07:34:23;97781.94;;;19.13;53.75
70968;BME280;58629;48.808;8.820;2022-07-06T07:36:48;97784.81;;;19.37;54.86
70968;BME280;58629;48.808;8.820;2022-07-06T07:39:13;97779.50;;;19.87;52.67
70968;BME280;58629;48.808;8.820;2022-07-06T07:41:38;97771.22;;;19.58;52.49
70968;BME280;58629;48.808;8.820;2022-07-06T07:44:04;97772.69;;;19.41;53.52
70968;BME280;58629;48.808;8.820;2022-07-06T07:46:29;97771.19;;;19.67;54.32
70968;BME280;58629;48.808;8.820;2022-07-06T07:48:55;97775.66;;;19.79;52.95
70968;BME280;58629;48.808;8.820;2022-07-06T07:51:20;97770.44;;;19.76;52.75
70968;BME280;58629;48.808;8.820;2022-07-06T07:53:45;97781.63;;;19.65;54.75
70968;BME280;58629;48.808;8.820;2022-07-06T07:56:11;97777.16;;;19.80;53.58
70968;BME280;58629;48.808;8.820;2022-07-06T07:58:37;97787.25;;;20.04;51.40
70968;BME280;58629;48.808;8.820;2022-07-06T08:01:02;97784.59;;;19.95;53.67
70968;BME280;58629;48.808;8.820;2022-07-06T08:03:29;97784.09;;;20.05;51.00
70968;BME280;58629;48.808;8.820;2022-07-06T08:05:54;97779.31;;;20.09;51.93
70968;BME280;58629;48.808;8.820;2022-07-06T08:08:20;97781.63;;;19.65;52.21
70968;BME280;58629;48.808;8.820;2022-07-06T08:10:45;97786.41;;;19.79;51.46
70968;BME280;58629;48.808;8.820;2022-07-06T08:13:11;97793.75;;;19.52;53.51
70968;BME280;58629;48.808;8.820;2022-07-06T08:15:37;97782.81;;;19.82;52.28
70968;BME280;58629;48.808;8.820;2022-07-06T08:18:03;97781.16;;;19.94;52.84
70968;BME280;58629;48.808;8.820;2022-07-06T08:20:29;97782.56;;;20.13;52.54
70968;BME280;58629;48.808;8.820;2022-07-06T08:22:54;97780.19;;;20.15;50.40
70968;BME280;58629;48.808;8.820;2022-07-06T08:25:20;97780.22;;;19.97;52.18
70968;BME280;58629;48.808;8.820;2022-07-06T08:27:45;97781.00;;;20.39;51.74
70968;BME280;58629;48.808;8.820;2022-07-06T08:30:11;97780.56;;;20.73;50.69
70968;BME280;58629;48.808;8.820;2022-07-06T08:32:39;97783.50;;;20.52;50.17
70968;BME280;58629;48.808;8.820;2022-07-06T08:35:05;97780.44;;;20.35;50.12
70968;BME280;58629;48.808;8.820;2022-07-06T08:37:30;97786.72;;;20.65;49.86
70968;BME280;58629;48.808;8.820;2022-07-06T08:39:56;97779.03;;;21.05;48.97
70968;BME280;58629;48.808;8.820;2022-07-06T08:42:21;97772.94;;;21.19;50.21
70968;BME280;58629;48.808;8.820;2022-07-06T08:44:49;97778.91;;;21.23;50.00
70968;BME280;58629;48.808;8.820;2022-07-06T08:47:16;97780.00;;;21.31;48.96
70968;BME280;58629;48.808;8.820;2022-07-06T08:49:43;97778.63;;;21.21;49.40
70968;BME280;58629;48.808;8.820;2022-07-06T08:52:09;97779.44;;;21.27;49.37
70968;BME280;58629;48.808;8.820;2022-07-06T08:54:35;97779.84;;;21.49;49.40
70968;BME280;58629;48.808;8.820;2022-07-06T08:57:02;97789.25;;;21.54;48.03
70968;BME280;58629;48.808;8.820;2022-07-06T08:59:29;97778.56;;;20.98;49.32
70968;BME280;58629;48.808;8.820;2022-07-06T09:01:55;97782.09;;;21.13;49.63
70968;BME280;58629;48.808;8.820;2022-07-06T09:04:22;97791.09;;;21.10;48.69
70968;BME280;58629;48.808;8.820;2022-07-06T09:06:47;97784.63;;;21.54;48.31
70968;BME280;58629;48.808;8.820;2022-07-06T09:09:19;97788.16;;;21.61;48.80
70968;BME280;58629;48.808;8.820;2022-07-06T09:11:45;97792.78;;;21.60;48.11
70968;BME280;58629;48.808;8.820;2022-07-06T09:14:11;97793.50;;;21.84;47.33
70968;BME280;58629;48.808;8.820;2022-07-06T09:16:36;97797.88;;;21.43;48.10
70968;BME280;58629;48.808;8.820;2022-07-06T09:19:02;97802.16;;;21.50;48.84
70968;BME280;58629;48.808;8.820;2022-07-06T09:21:30;97797.69;;;21.09;49.33
70968;BME280;58629;48.808;8.820;2022-07-06T09:23:58;97799.31;;;21.30;48.03
70968;BME280;58629;48.808;8.820;2022-07-06T09:26:24;97803.16;;;21.91;47.58
70968;BME280;58629;48.808;8.820;2022-07-06T09:28:51;97797.84;;;21.82;46.88
70968;BME280;58629;48.808;8.820;2022-07-06T09:31:17;97805.56;;;22.18;47.87
70968;BME280;58629;48.808;8.820;2022-07-06T09:36:41;97804.47;;;21.57;49.11
70968;BME280;58629;48.808;8.820;2022-07-06T09:41:46;97817.75;;;21.08;48.63
70968;BME280;58629;48.808;8.820;2022-07-06T09:44:12;97807.09;;;21.13;48.06
70968;BME280;58629;48.808;8.820;2022-07-06T09:46:41;97804.81;;;21.35;47.90
70968;BME280;58629;48.808;8.820;2022-07-06T09:49:08;97812.75;;;21.39;47.07
70968;BME280;58629;48.808;8.820;2022-07-06T09:51:37;97809.97;;;21.48;47.30
70968;BME280;58629;48.808;8.820;2022-07-06T09:54:07;97803.41;;;21.25;47.44
70968;BME280;58629;48.808;8.820;2022-07-06T09:56:39;97811.50;;;21.78;48.47
70968;BME280;58629;48.808;8.820;2022-07-06T09:59:08;97819.06;;;21.89;49.20
70968;BME280;58629;48.808;8.820;2022-07-06T10:01:35;97820.16;;;21.97;46.84
70968;BME280;58629;48.808;8.820;2022-07-06T10:04:00;97817.41;;;22.20;46.05
70968;BME280;58629;48.808;8.820;2022-07-06T10:06:26;97808.22;;;21.59;46.98
70968;BME280;58629;48.808;8.820;2022-07-06T10:08:54;97807.25;;;22.01;47.39
70968;BME280;58629;48.808;8.820;2022-07-06T10:11:21;97817.56;;;21.88;46.56
70968;BME280;58629;48.808;8.820;2022-07-06T10:13:48;97819.59;;;21.93;47.24
70968;BME280;58629;48.808;8.820;2022-07-06T10:16:15;97828.34;;;21.88;47.70
70968;BME280;58629;48.808;8.820;2022-07-06T10:18:41;97820.63;;;22.24;45.74
70968;BME280;58629;48.808;8.820;2022-07-06T10:21:06;97817.91;;;22.24;46.39
70968;BME280;58629;48.808;8.820;2022-07-06T10:23:33;97822.47;;;22.33;45.30
70968;BME280;58629;48.808;8.820;2022-07-06T10:26:00;97834.47;;;22.47;46.05
70968;BME280;58629;48.808;8.820;2022-07-06T10:28:26;97828.19;;;23.24;44.06
70968;BME280;58629;48.808;8.820;2022-07-06T10:30:52;97825.41;;;22.64;44.50
70968;BME280;58629;48.808;8.820;2022-07-06T10:33:18;97824.03;;;21.67;46.08
70968;BME280;58629;48.808;8.820;2022-07-06T10:35:44;97820.81;;;22.21;46.42
70968;BME280;58629;48.808;8.820;2022-07-06T10:38:10;97824.44;;;22.03;46.19
70968;BME280;58629;48.808;8.820;2022-07-06T10:40:38;97823.06;;;21.93;46.99
70968;BME280;58629;48.808;8.820;2022-07-06T10:43:22;97828.06;;;22.29;47.17
70968;BME280;58629;48.808;8.820;2022-07-06T10:50:54;97816.16;;;22.07;46.89
70968;BME280;58629;48.808;8.820;2022-07-06T10:53:25;97814.50;;;22.24;44.77
70968;BME280;58629;48.808;8.820;2022-07-06T10:55:52;97823.31;;;22.88;44.29
70968;BME280;58629;48.808;8.820;2022-07-06T10:58:39;97835.91;;;23.32;43.50
70968;BME280;58629;48.808;8.820;2022-07-06T11:01:09;97816.75;;;23.55;43.95
70968;BME280;58629;48.808;8.820;2022-07-06T11:06:17;97815.50;;;24.64;40.30
70968;BME280;58629;48.808;8.820;2022-07-06T11:08:47;97822.44;;;24.71;39.99
70968;BME280;58629;48.808;8.820;2022-07-06T11:13:55;97813.44;;;23.91;42.11
70968;BME280;58629;48.808;8.820;2022-07-06T11:16:22;97819.56;;;23.86;40.98
70968;BME280;58629;48.808;8.820;2022-07-06T11:19:04;97814.13;;;23.61;42.36
70968;BME280;58629;48.808;8.820;2022-07-06T11:21:36;97817.72;;;24.29;42.02
70968;BME280;58629;48.808;8.820;2022-07-06T11:24:05;97812.34;;;23.32;41.80
70968;BME280;58629;48.808;8.820;2022-07-06T11:26:31;97810.16;;;23.56;41.17
70968;BME280;58629;48.808;8.820;2022-07-06T11:28:59;97801.25;;;24.33;41.65
70968;BME280;58629;48.808;8.820;2022-07-06T11:31:27;97801.19;;;24.22;41.04
70968;BME280;58629;48.808;8.820;2022-07-06T11:33:52;97803.38;;;24.18;41.38
70968;BME280;58629;48.808;8.820;2022-07-06T11:36:19;97798.88;;;24.40;39.88
70968;BME280;58629;48.808;8.820;2022-07-06T11:38:47;97797.34;;;23.77;40.82
70968;BME280;58629;48.808;8.820;2022-07-06T11:41:13;97809.31;;;22.90;43.96
70968;BME280;58629;48.808;8.820;2022-07-06T11:43:46;97805.75;;;22.78;42.64
70968;BME280;58629;48.808;8.820;2022-07-06T11:46:26;97804.41;;;23.08;42.84
70968;BME280;58629;48.808;8.820;2022-07-06T11:48:57;97790.22;;;22.73;42.07
70968;BME280;58629;48.808;8.820;2022-07-06T11:51:24;97798.66;;;22.31;43.41
70968;BME280;58629;48.808;8.820;2022-07-06T11:53:55;97786.56;;;22.27;44.75
70968;BME280;58629;48.808;8.820;2022-07-06T11:56:22;97804.78;;;21.74;46.19
70968;BME280;58629;48.808;8.820;2022-07-06T11:58:51;97803.19;;;21.52;45.15
70968;BME280;58629;48.808;8.820;2022-07-06T12:01:17;97798.75;;;22.22;43.50
70968;BME280;58629;48.808;8.820;2022-07-06T12:03:44;97787.13;;;23.20;41.17
70968;BME280;58629;48.808;8.820;2022-07-06T12:06:16;97792.38;;;23.50;41.49
70968;BME280;58629;48.808;8.820;2022-07-06T12:08:47;97777.78;;;23.93;40.76
70968;BME280;58629;48.808;8.820;2022-07-06T12:11:28;97793.31;;;22.52;42.13
70968;BME280;58629;48.808;8.820;2022-07-06T12:13:55;97791.13;;;22.35;43.63
70968;BME280;58629;48.808;8.820;2022-07-06T12:16:21;97784.00;;;22.67;43.14
70968;BME280;58629;48.808;8.820;2022-07-06T12:18:53;97783.53;;;23.29;43.03
70968;BME280;58629;48.808;8.820;2022-07-06T12:21:20;97786.19;;;23.69;40.69
70968;BME280;58629;48.808;8.820;2022-07-06T12:23:51;97784.22;;;23.44;40.89
70968;BME280;58629;48.808;8.820;2022-07-06T12:26:19;97776.34;;;23.66;41.64
70968;BME280;58629;48.808;8.820;2022-07-06T12:28:45;97773.97;;;24.05;40.42
70968;BME280;58629;48.808;8.820;2022-07-06T12:31:11;97779.59;;;24.01;40.46
70968;BME280;58629;48.808;8.820;2022-07-06T12:33:37;97767.84;;;24.41;39.43
70968;BME280;58629;48.808;8.820;2022-07-06T12:36:15;97766.13;;;24.86;38.79
70968;BME280;58629;48.808;8.820;2022-07-06T12:38:45;97765.28;;;24.63;38.47
70968;BME280;58629;48.808;8.820;2022-07-06T12:41:32;97776.69;;;23.54;39.57
70968;BME280;58629;48.808;8.820;2022-07-06T12:44:09;97782.47;;;23.21;40.31
70968;BME280;58629;48.808;8.820;2022-07-06T12:46:37;97778.19;;;22.25;42.39
70968;BME280;58629;48.808;8.820;2022-07-06T12:49:20;97770.03;;;22.69;42.56
70968;BME280;58629;48.808;8.820;2022-07-06T12:54:40;97769.63;;;22.41;43.87
70968;BME280;58629;48.808;8.820;2022-07-06T13:04:54;97766.13;;;22.90;42.14
70968;BME280;58629;48.808;8.820;2022-07-06T13:07:20;97768.97;;;22.46;43.17
70968;BME280;58629;48.808;8.820;2022-07-06T13:09:45;97761.25;;;23.34;41.90
70968;BME280;58629;48.808;8.820;2022-07-06T13:12:10;97753.94;;;24.59;39.49
70968;BME280;58629;48.808;8.820;2022-07-06T13:14:36;97758.81;;;24.19;39.27
70968;BME280;58629;48.808;8.820;2022-07-06T13:17:02;97767.81;;;22.67;41.60
70968;BME280;58629;48.808;8.820;2022-07-06T13:19:27;97756.53;;;22.89;41.52
70968;BME280;58629;48.808;8.820;2022-07-06T13:21:53;97742.91;;;23.44;41.83
70968;BME280;58629;48.808;8.820;2022-07-06T13:24:18;97751.56;;;23.27;41.42